sensor_id;sensor_type;location;lat;lon;timestamp;P1;durP1;ratioP1;P2;durP2;ratioP2
8458;SDS011;4266;48.816;9.154;2024-02-21T00:00:56;15.07;;;6.93;;
8458;SDS011;4266;48.816;9.154;2024-02-21T00:03:22;10.73;;;6.07;;
8458;SDS011;4266;48.816;9.154;2024-02-21T00:05:47;12.73;;;6.00;;
8458;SDS011;4266;48.816;9.154;2024-02-21T00:08:13;11.30;;;6.33;;
8458;SDS011;4266;48.816;9.154;2024-02-21T00:10:40;11.67;;;6.03;;
8458;SDS011;4266;48.816;9.154;2024-02-21T00:13:06;11.87;;;7.20;;
8458;SDS011;4266;48.816;9.154;2024-02-21T00:15:32;12.47;;;6.20;;
8458;SDS011;4266;48.816;9.154;2024-02-21T00:17:58;10.93;;;6.20;;
8458;SDS011;4266;48.816;9.154;2024-02-21T00:20:23;13.60;;;5.03;;
8458;SDS011;4266;48.816;9.154;2024-02-21T00:22:49;11.53;;;5.57;;
8458;SDS011;4266;48.816;9.154;2024-02-21T00:25:15;13.70;;;5.57;;
8458;SDS011;4266;48.816;9.154;2024-02-21T00:27:40;8.20;;;4.83;;
8458;SDS011;4266;48.816;9.154;2024-02-21T00:30:06;13.53;;;5.27;;
8458;SDS011;4266;48.816;9.154;2024-02-21T00:32:33;14.80;;;5.33;;
8458;SDS011;4266;48.816;9.154;2024-02-21T00:35:00;11.90;;;6.10;;
8458;SDS011;4266;48.816;9.154;2024-02-21T00:37:25;12.60;;;5.43;;
8458;SDS011;4266;48.816;9.154;2024-02-21T00:39:51;13.33;;;5.40;;
8458;SDS011;4266;48.816;9.154;2024-02-21T00:42:16;13.23;;;5.77;;
8458;SDS011;4266;48.816;9.154;2024-02-21T00:44:42;9.57;;;5.00;;
8458;SDS011;4266;48.816;9.154;2024-02-21T00:47:09;10.30;;;5.30;;
8458;SDS011;4266;48.816;9.154;2024-02-21T00:49:34;12.03;;;5.30;;
8458;SDS011;4266;48.816;9.154;2024-02-21T00:52:00;13.03;;;5.03;;
8458;SDS011;4266;48.816;9.154;2024-02-21T00:54:26;8.67;;;4.87;;
8458;SDS011;4266;48.816;9.154;2024-02-21T00:56:51;10.27;;;5.70;;
8458;SDS011;4266;48.816;9.154;2024-02-21T00:59:18;12.60;;;5.87;;
8458;SDS011;4266;48.816;9.154;2024-02-21T01:01:43;9.83;;;5.30;;
8458;SDS011;4266;48.816;9.154;2024-02-21T01:04:09;12.53;;;5.67;;
8458;SDS011;4266;48.816;9.154;2024-02-21T01:06:35;10.00;;;5.53;;
8458;SDS011;4266;48.816;9.154;2024-02-21T01:09:01;14.77;;;5.67;;
8458;SDS011;4266;48.816;9.154;2024-02-21T01:11:27;12.77;;;5.97;;
8458;SDS011;4266;48.816;9.154;2024-02-21T01:13:53;14.43;;;5.17;;
8458;SDS011;4266;48.816;9.154;2024-02-21T01:16:19;11.37;;;5.77;;
8458;SDS011;4266;48.816;9.154;2024-02-21T01:18:45;10.90;;;5.70;;
8458;SDS011;4266;48.816;9.154;2024-02-21T01:21:11;14.77;;;5.90;;
8458;SDS011;4266;48.816;9.154;2024-02-21T01:23:37;11.10;;;5.20;;
8458;SDS011;4266;48.816;9.154;2024-02-21T01:26:03;9.87;;;5.10;;
8458;SDS011;4266;48.816;9.154;2024-02-21T01:28:29;9.23;;;4.90;;
8458;SDS011;4266;48.816;9.154;2024-02-21T01:30:55;12.70;;;5.03;;
8458;SDS011;4266;48.816;9.154;2024-02-21T01:33:21;9.80;;;5.43;;
8458;SDS011;4266;48.816;9.154;2024-02-21T01:35:46;10.33;;;4.83;;
8458;SDS011;4266;48.816;9.154;2024-02-21T01:38:12;11.63;;;5.00;;
8458;SDS011;4266;48.816;9.154;2024-02-21T01:40:38;10.37;;;5.60;;
8458;SDS011;4266;48.816;9.154;2024-02-21T01:43:03;10.77;;;5.10;;
8458;SDS011;4266;48.816;9.154;2024-02-21T01:45:29;13.27;;;5.10;;
8458;SDS011;4266;48.816;9.154;2024-02-21T01:47:55;9.53;;;5.13;;
8458;SDS011;4266;48.816;9.154;2024-02-21T01:50:21;12.90;;;5.47;;
8458;SDS011;4266;48.816;9.154;2024-02-21T01:52:47;8.97;;;4.73;;
8458;SDS011;4266;48.816;9.154;2024-02-21T01:55:13;9.40;;;4.90;;
8458;SDS011;4266;48.816;9.154;2024-02-21T01:57:39;8.93;;;4.60;;
8458;SDS011;4266;48.816;9.154;2024-02-21T02:00:04;12.37;;;5.17;;
8458;SDS011;4266;48.816;9.154;2024-02-21T02:02:31;9.30;;;4.77;;
8458;SDS011;4266;48.816;9.154;2024-02-21T02:04:57;6.93;;;4.27;;
8458;SDS011;4266;48.816;9.154;2024-02-21T02:07:23;13.53;;;5.00;;
8458;SDS011;4266;48.816;9.154;2024-02-21T02:09:48;11.73;;;4.47;;
8458;SDS011;4266;48.816;9.154;2024-02-21T02:12:15;9.43;;;4.93;;
8458;SDS011;4266;48.816;9.154;2024-02-21T02:14:40;10.03;;;4.53;;
8458;SDS011;4266;48.816;9.154;2024-02-21T02:17:06;11.10;;;4.43;;
8458;SDS011;4266;48.816;9.154;2024-02-21T02:19:32;8.67;;;4.53;;
8458;SDS011;4266;48.816;9.154;2024-02-21T02:22:00;12.13;;;4.73;;
8458;SDS011;4266;48.816;9.154;2024-02-21T02:24:25;9.87;;;4.57;;
8458;SDS011;4266;48.816;9.154;2024-02-21T02:26:51;7.47;;;4.37;;
8458;SDS011;4266;48.816;9.154;2024-02-21T02:29:16;9.40;;;4.83;;
8458;SDS011;4266;48.816;9.154;2024-02-21T02:31:43;7.93;;;4.40;;
8458;SDS011;4266;48.816;9.154;2024-02-21T02:34:09;13.20;;;4.67;;
8458;SDS011;4266;48.816;9.154;2024-02-21T02:36:35;8.37;;;4.50;;
8458;SDS011;4266;48.816;9.154;2024-02-21T02:39:01;10.83;;;4.33;;
8458;SDS011;4266;48.816;9.154;2024-02-21T02:41:27;10.50;;;4.63;;
8458;SDS011;4266;48.816;9.154;2024-02-21T02:43:53;11.47;;;4.60;;
8458;SDS011;4266;48.816;9.154;2024-02-21T02:46:20;9.57;;;4.40;;
8458;SDS011;4266;48.816;9.154;2024-02-21T02:48:45;11.27;;;4.60;;
8458;SDS011;4266;48.816;9.154;2024-02-21T02:51:11;12.63;;;4.27;;
8458;SDS011;4266;48.816;9.154;2024-02-21T02:53:37;11.20;;;4.70;;
8458;SDS011;4266;48.816;9.154;2024-02-21T02:56:04;9.43;;;4.43;;
8458;SDS011;4266;48.816;9.154;2024-02-21T02:58:31;6.43;;;3.93;;
8458;SDS011;4266;48.816;9.154;2024-02-21T03:00:57;11.70;;;4.57;;
8458;SDS011;4266;48.816;9.154;2024-02-21T03:03:23;9.33;;;4.60;;
8458;SDS011;4266;48.816;9.154;2024-02-21T03:05:48;11.00;;;4.90;;
8458;SDS011;4266;48.816;9.154;2024-02-21T03:08:14;10.30;;;4.73;;
8458;SDS011;4266;48.816;9.154;2024-02-21T03:10:40;8.67;;;4.30;;
8458;SDS011;4266;48.816;9.154;2024-02-21T03:13:05;10.10;;;4.80;;
8458;SDS011;4266;48.816;9.154;2024-02-21T03:15:31;9.53;;;4.40;;
8458;SDS011;4266;48.816;9.154;2024-02-21T03:17:57;9.30;;;4.20;;
8458;SDS011;4266;48.816;9.154;2024-02-21T03:20:23;11.57;;;4.57;;
8458;SDS011;4266;48.816;9.154;2024-02-21T03:22:49;9.60;;;5.07;;
8458;SDS011;4266;48.816;9.154;2024-02-21T03:25:14;11.07;;;4.70;;
8458;SDS011;4266;48.816;9.154;2024-02-21T03:27:40;12.70;;;4.57;;
8458;SDS011;4266;48.816;9.154;2024-02-21T03:30:07;7.83;;;4.63;;
8458;SDS011;4266;48.816;9.154;2024-02-21T03:32:33;10.77;;;4.93;;
8458;SDS011;4266;48.816;9.154;2024-02-21T03:34:59;9.37;;;5.07;;
8458;SDS011;4266;48.816;9.154;2024-02-21T03:37:25;10.13;;;5.03;;
8458;SDS011;4266;48.816;9.154;2024-02-21T03:39:51;11.63;;;5.07;;
8458;SDS011;4266;48.816;9.154;2024-02-21T03:42:17;11.73;;;4.90;;
8458;SDS011;4266;48.816;9.154;2024-02-21T03:44:43;7.70;;;4.83;;
8458;SDS011;4266;48.816;9.154;2024-02-21T03:47:08;12.73;;;4.40;;
8458;SDS011;4266;48.816;9.154;2024-02-21T03:49:34;12.47;;;4.97;;
8458;SDS011;4266;48.816;9.154;2024-02-21T03:52:00;11.03;;;5.07;;
8458;SDS011;4266;48.816;9.154;2024-02-21T03:54:25;12.20;;;5.13;;
8458;SDS011;4266;48.816;9.154;2024-02-21T03:56:51;12.10;;;5.40;;
8458;SDS011;4266;48.816;9.154;2024-02-21T03:59:17;9.30;;;4.30;;
8458;SDS011;4266;48.816;9.154;2024-02-21T04:01:43;8.63;;;4.50;;
8458;SDS011;4266;48.816;9.154;2024-02-21T04:04:10;10.23;;;4.87;;
8458;SDS011;4266;48.816;9.154;2024-02-21T04:06:36;10.97;;;4.60;;
8458;SDS011;4266;48.816;9.154;2024-02-21T04:09:02;8.73;;;4.50;;
8458;SDS011;4266;48.816;9.154;2024-02-21T04:11:28;12.67;;;4.93;;
8458;SDS011;4266;48.816;9.154;2024-02-21T04:13:54;11.27;;;4.87;;
8458;SDS011;4266;48.816;9.154;2024-02-21T04:16:19;11.63;;;5.23;;
8458;SDS011;4266;48.816;9.154;2024-02-21T04:18:45;9.47;;;5.00;;
8458;SDS011;4266;48.816;9.154;2024-02-21T04:21:13;9.03;;;5.23;;
8458;SDS011;4266;48.816;9.154;2024-02-21T04:23:37;12.53;;;4.97;;
8458;SDS011;4266;48.816;9.154;2024-02-21T04:26:03;9.43;;;4.97;;
8458;SDS011;4266;48.816;9.154;2024-02-21T04:28:29;8.90;;;5.13;;
8458;SDS011;4266;48.816;9.154;2024-02-21T04:30:54;9.77;;;5.00;;
8458;SDS011;4266;48.816;9.154;2024-02-21T04:33:20;7.60;;;4.73;;
8458;SDS011;4266;48.816;9.154;2024-02-21T04:35:46;9.57;;;4.83;;
8458;SDS011;4266;48.816;9.154;2024-02-21T04:38:12;9.40;;;4.63;;
8458;SDS011;4266;48.816;9.154;2024-02-21T04:40:38;8.83;;;4.53;;
8458;SDS011;4266;48.816;9.154;2024-02-21T04:43:04;9.77;;;4.50;;
8458;SDS011;4266;48.816;9.154;2024-02-21T04:45:30;8.57;;;4.27;;
8458;SDS011;4266;48.816;9.154;2024-02-21T04:47:56;11.33;;;4.40;;
8458;SDS011;4266;48.816;9.154;2024-02-21T04:50:23;9.00;;;4.50;;
8458;SDS011;4266;48.816;9.154;2024-02-21T04:52:50;8.67;;;4.70;;
8458;SDS011;4266;48.816;9.154;2024-02-21T04:55:15;10.97;;;5.03;;
8458;SDS011;4266;48.816;9.154;2024-02-21T04:57:42;6.87;;;4.20;;
8458;SDS011;4266;48.816;9.154;2024-02-21T05:00:09;8.20;;;4.30;;
8458;SDS011;4266;48.816;9.154;2024-02-21T05:02:35;8.60;;;4.40;;
8458;SDS011;4266;48.816;9.154;2024-02-21T05:05:01;13.47;;;4.53;;
8458;SDS011;4266;48.816;9.154;2024-02-21T05:07:27;7.57;;;4.27;;
8458;SDS011;4266;48.816;9.154;2024-02-21T05:09:54;7.30;;;4.17;;
8458;SDS011;4266;48.816;9.154;2024-02-21T05:12:20;11.50;;;4.73;;
8458;SDS011;4266;48.816;9.154;2024-02-21T05:14:46;11.93;;;4.70;;
8458;SDS011;4266;48.816;9.154;2024-02-21T05:17:12;9.90;;;4.40;;
8458;SDS011;4266;48.816;9.154;2024-02-21T05:19:38;8.37;;;4.83;;
8458;SDS011;4266;48.816;9.154;2024-02-21T05:22:04;11.57;;;5.07;;
8458;SDS011;4266;48.816;9.154;2024-02-21T05:24:29;10.70;;;5.23;;
8458;SDS011;4266;48.816;9.154;2024-02-21T05:26:56;15.10;;;4.83;;
8458;SDS011;4266;48.816;9.154;2024-02-21T05:29:22;7.47;;;4.50;;
8458;SDS011;4266;48.816;9.154;2024-02-21T05:31:57;10.23;;;4.97;;
8458;SDS011;4266;48.816;9.154;2024-02-21T05:34:23;10.03;;;4.40;;
8458;SDS011;4266;48.816;9.154;2024-02-21T05:36:49;9.07;;;4.90;;
8458;SDS011;4266;48.816;9.154;2024-02-21T05:39:15;8.27;;;4.20;;
8458;SDS011;4266;48.816;9.154;2024-02-21T05:41:40;10.27;;;4.47;;
8458;SDS011;4266;48.816;9.154;2024-02-21T05:44:07;7.70;;;4.83;;
8458;SDS011;4266;48.816;9.154;2024-02-21T05:46:33;8.27;;;5.03;;
8458;SDS011;4266;48.816;9.154;2024-02-21T05:48:58;10.73;;;4.57;;
8458;SDS011;4266;48.816;9.154;2024-02-21T05:51:24;8.57;;;4.13;;
8458;SDS011;4266;48.816;9.154;2024-02-21T05:53:50;7.43;;;4.50;;
8458;SDS011;4266;48.816;9.154;2024-02-21T05:56:16;10.57;;;4.90;;
8458;SDS011;4266;48.816;9.154;2024-02-21T05:58:42;7.20;;;4.73;;
8458;SDS011;4266;48.816;9.154;2024-02-21T06:01:08;6.87;;;4.37;;
8458;SDS011;4266;48.816;9.154;2024-02-21T06:03:35;12.27;;;5.10;;
8458;SDS011;4266;48.816;9.154;2024-02-21T06:06:00;8.83;;;4.87;;
8458;SDS011;4266;48.816;9.154;2024-02-21T06:08:26;8.43;;;4.50;;
8458;SDS011;4266;48.816;9.154;2024-02-21T06:10:52;9.27;;;4.73;;
8458;SDS011;4266;48.816;9.154;2024-02-21T06:13:18;6.27;;;4.40;;
8458;SDS011;4266;48.816;9.154;2024-02-21T06:15:44;8.20;;;4.40;;
8458;SDS011;4266;48.816;9.154;2024-02-21T06:18:11;6.27;;;4.03;;
8458;SDS011;4266;48.816;9.154;2024-02-21T06:20:36;10.50;;;4.53;;
8458;SDS011;4266;48.816;9.154;2024-02-21T06:23:03;8.73;;;4.57;;
8458;SDS011;4266;48.816;9.154;2024-02-21T06:25:29;11.10;;;4.57;;
8458;SDS011;4266;48.816;9.154;2024-02-21T06:27:54;10.90;;;4.43;;
8458;SDS011;4266;48.816;9.154;2024-02-21T06:30:20;13.23;;;5.47;;
8458;SDS011;4266;48.816;9.154;2024-02-21T06:32:46;8.57;;;5.00;;
8458;SDS011;4266;48.816;9.154;2024-02-21T06:35:12;12.57;;;5.00;;
8458;SDS011;4266;48.816;9.154;2024-02-21T06:37:38;10.27;;;4.70;;
8458;SDS011;4266;48.816;9.154;2024-02-21T06:40:05;11.73;;;5.37;;
8458;SDS011;4266;48.816;9.154;2024-02-21T06:42:32;9.17;;;4.83;;
8458;SDS011;4266;48.816;9.154;2024-02-21T06:44:58;8.63;;;4.63;;
8458;SDS011;4266;48.816;9.154;2024-02-21T06:47:23;8.87;;;4.47;;
8458;SDS011;4266;48.816;9.154;2024-02-21T06:49:49;8.63;;;4.73;;
8458;SDS011;4266;48.816;9.154;2024-02-21T06:52:17;8.47;;;5.33;;
8458;SDS011;4266;48.816;9.154;2024-02-21T06:54:41;7.40;;;4.73;;
8458;SDS011;4266;48.816;9.154;2024-02-21T06:57:07;8.97;;;5.17;;
8458;SDS011;4266;48.816;9.154;2024-02-21T06:59:33;8.93;;;4.93;;
8458;SDS011;4266;48.816;9.154;2024-02-21T07:01:59;14.53;;;4.50;;
8458;SDS011;4266;48.816;9.154;2024-02-21T07:04:26;9.23;;;4.63;;
8458;SDS011;4266;48.816;9.154;2024-02-21T07:06:51;7.00;;;4.60;;
8458;SDS011;4266;48.816;9.154;2024-02-21T07:09:17;7.77;;;4.30;;
8458;SDS011;4266;48.816;9.154;2024-02-21T07:11:43;6.93;;;4.00;;
8458;SDS011;4266;48.816;9.154;2024-02-21T07:14:09;8.50;;;3.80;;
8458;SDS011;4266;48.816;9.154;2024-02-21T07:16:35;9.47;;;4.20;;
8458;SDS011;4266;48.816;9.154;2024-02-21T07:19:00;7.63;;;4.67;;
8458;SDS011;4266;48.816;9.154;2024-02-21T07:21:27;10.30;;;4.07;;
8458;SDS011;4266;48.816;9.154;2024-02-21T07:23:53;8.20;;;3.87;;
8458;SDS011;4266;48.816;9.154;2024-02-21T07:26:19;5.93;;;3.60;;
8458;SDS011;4266;48.816;9.154;2024-02-21T07:28:45;12.13;;;3.93;;
8458;SDS011;4266;48.816;9.154;2024-02-21T07:31:10;7.53;;;3.77;;
8458;SDS011;4266;48.816;9.154;2024-02-21T07:33:36;7.73;;;3.90;;
8458;SDS011;4266;48.816;9.154;2024-02-21T07:36:05;10.37;;;4.03;;
8458;SDS011;4266;48.816;9.154;2024-02-21T07:38:28;7.67;;;3.83;;
8458;SDS011;4266;48.816;9.154;2024-02-21T07:40:54;6.10;;;3.77;;
8458;SDS011;4266;48.816;9.154;2024-02-21T07:43:20;6.80;;;3.33;;
8458;SDS011;4266;48.816;9.154;2024-02-21T07:45:46;7.97;;;3.37;;
8458;SDS011;4266;48.816;9.154;2024-02-21T07:48:12;9.13;;;3.80;;
8458;SDS011;4266;48.816;9.154;2024-02-21T07:50:38;6.17;;;3.50;;
8458;SDS011;4266;48.816;9.154;2024-02-21T07:53:04;8.57;;;3.60;;
8458;SDS011;4266;48.816;9.154;2024-02-21T07:55:30;7.97;;;3.83;;
8458;SDS011;4266;48.816;9.154;2024-02-21T07:57:55;7.13;;;3.80;;
8458;SDS011;4266;48.816;9.154;2024-02-21T08:00:22;8.10;;;3.47;;
8458;SDS011;4266;48.816;9.154;2024-02-21T08:02:48;5.50;;;3.30;;
8458;SDS011;4266;48.816;9.154;2024-02-21T08:05:14;6.63;;;3.60;;
8458;SDS011;4266;48.816;9.154;2024-02-21T08:07:40;5.70;;;3.50;;
8458;SDS011;4266;48.816;9.154;2024-02-21T08:10:06;7.57;;;4.07;;
8458;SDS011;4266;48.816;9.154;2024-02-21T08:12:33;8.77;;;3.50;;
8458;SDS011;4266;48.816;9.154;2024-02-21T08:14:59;9.17;;;4.13;;
8458;SDS011;4266;48.816;9.154;2024-02-21T08:17:26;5.60;;;3.70;;
8458;SDS011;4266;48.816;9.154;2024-02-21T08:19:51;7.32;;;3.60;;
8458;SDS011;4266;48.816;9.154;2024-02-21T08:22:17;7.15;;;3.55;;
8458;SDS011;4266;48.816;9.154;2024-02-21T08:24:43;6.23;;;3.23;;
8458;SDS011;4266;48.816;9.154;2024-02-21T08:27:09;6.22;;;3.47;;
8458;SDS011;4266;48.816;9.154;2024-02-21T08:29:35;5.97;;;3.83;;
8458;SDS011;4266;48.816;9.154;2024-02-21T08:32:01;5.90;;;3.47;;
8458;SDS011;4266;48.816;9.154;2024-02-21T08:34:26;6.75;;;3.50;;
8458;SDS011;4266;48.816;9.154;2024-02-21T08:36:52;4.65;;;3.40;;
8458;SDS011;4266;48.816;9.154;2024-02-21T08:39:18;6.00;;;3.47;;
8458;SDS011;4266;48.816;9.154;2024-02-21T08:41:44;9.27;;;3.83;;
8458;SDS011;4266;48.816;9.154;2024-02-21T08:44:11;6.70;;;3.92;;
8458;SDS011;4266;48.816;9.154;2024-02-21T08:46:37;9.00;;;4.20;;
8458;SDS011;4266;48.816;9.154;2024-02-21T08:49:03;6.13;;;3.90;;
8458;SDS011;4266;48.816;9.154;2024-02-21T08:51:29;7.20;;;3.70;;
8458;SDS011;4266;48.816;9.154;2024-02-21T08:53:55;6.17;;;3.60;;
8458;SDS011;4266;48.816;9.154;2024-02-21T08:56:21;8.13;;;3.80;;
8458;SDS011;4266;48.816;9.154;2024-02-21T08:58:48;7.23;;;3.50;;
8458;SDS011;4266;48.816;9.154;2024-02-21T09:01:14;5.63;;;3.60;;
8458;SDS011;4266;48.816;9.154;2024-02-21T09:03:40;9.73;;;4.37;;
8458;SDS011;4266;48.816;9.154;2024-02-21T09:06:06;6.20;;;3.70;;
8458;SDS011;4266;48.816;9.154;2024-02-21T09:08:32;8.03;;;3.60;;
8458;SDS011;4266;48.816;9.154;2024-02-21T09:10:57;13.30;;;4.70;;
8458;SDS011;4266;48.816;9.154;2024-02-21T09:13:23;7.57;;;4.00;;
8458;SDS011;4266;48.816;9.154;2024-02-21T09:15:49;8.80;;;4.00;;
8458;SDS011;4266;48.816;9.154;2024-02-21T09:18:15;8.23;;;3.97;;
8458;SDS011;4266;48.816;9.154;2024-02-21T09:20:40;8.07;;;3.80;;
8458;SDS011;4266;48.816;9.154;2024-02-21T09:23:06;6.87;;;3.53;;
8458;SDS011;4266;48.816;9.154;2024-02-21T09:25:32;8.20;;;3.90;;
8458;SDS011;4266;48.816;9.154;2024-02-21T09:27:57;9.50;;;4.10;;
8458;SDS011;4266;48.816;9.154;2024-02-21T09:30:24;6.13;;;3.70;;
8458;SDS011;4266;48.816;9.154;2024-02-21T09:32:50;8.23;;;4.10;;
8458;SDS011;4266;48.816;9.154;2024-02-21T09:35:16;10.20;;;4.30;;
8458;SDS011;4266;48.816;9.154;2024-02-21T09:37:42;5.20;;;3.43;;
8458;SDS011;4266;48.816;9.154;2024-02-21T09:40:08;4.93;;;3.67;;
8458;SDS011;4266;48.816;9.154;2024-02-21T09:42:37;6.73;;;3.70;;
8458;SDS011;4266;48.816;9.154;2024-02-21T09:45:03;5.47;;;4.03;;
8458;SDS011;4266;48.816;9.154;2024-02-21T09:47:34;6.30;;;3.47;;
8458;SDS011;4266;48.816;9.154;2024-02-21T09:49:56;5.45;;;3.42;;
8458;SDS011;4266;48.816;9.154;2024-02-21T09:52:22;6.12;;;3.25;;
8458;SDS011;4266;48.816;9.154;2024-02-21T09:54:47;8.25;;;3.70;;
8458;SDS011;4266;48.816;9.154;2024-02-21T09:57:13;8.38;;;3.50;;
8458;SDS011;4266;48.816;9.154;2024-02-21T09:59:39;6.82;;;3.55;;
8458;SDS011;4266;48.816;9.154;2024-02-21T10:02:05;7.15;;;3.55;;
8458;SDS011;4266;48.816;9.154;2024-02-21T10:04:30;6.05;;;3.30;;
8458;SDS011;4266;48.816;9.154;2024-02-21T10:06:56;3.90;;;3.10;;
8458;SDS011;4266;48.816;9.154;2024-02-21T10:09:23;5.93;;;3.37;;
8458;SDS011;4266;48.816;9.154;2024-02-21T10:11:50;5.28;;;3.20;;
8458;SDS011;4266;48.816;9.154;2024-02-21T10:14:16;4.68;;;3.10;;
8458;SDS011;4266;48.816;9.154;2024-02-21T10:16:41;5.35;;;3.10;;
8458;SDS011;4266;48.816;9.154;2024-02-21T10:19:15;8.73;;;3.85;;
8458;SDS011;4266;48.816;9.154;2024-02-21T10:21:33;6.07;;;3.20;;
8458;SDS011;4266;48.816;9.154;2024-02-21T10:24:00;6.72;;;3.75;;
8458;SDS011;4266;48.816;9.154;2024-02-21T10:26:25;8.18;;;3.42;;
8458;SDS011;4266;48.816;9.154;2024-02-21T10:28:52;6.18;;;3.28;;
8458;SDS011;4266;48.816;9.154;2024-02-21T10:31:23;5.62;;;3.58;;
8458;SDS011;4266;48.816;9.154;2024-02-21T10:33:53;7.32;;;3.33;;
8458;SDS011;4266;48.816;9.154;2024-02-21T10:36:19;5.75;;;3.50;;
8458;SDS011;4266;48.816;9.154;2024-02-21T10:38:46;9.25;;;3.05;;
8458;SDS011;4266;48.816;9.154;2024-02-21T10:41:13;5.75;;;3.12;;
8458;SDS011;4266;48.816;9.154;2024-02-21T10:43:39;6.45;;;3.37;;
8458;SDS011;4266;48.816;9.154;2024-02-21T10:46:03;4.07;;;3.42;;
8458;SDS011;4266;48.816;9.154;2024-02-21T10:48:30;7.18;;;3.05;;
8458;SDS011;4266;48.816;9.154;2024-02-21T10:50:57;4.12;;;3.28;;
8458;SDS011;4266;48.816;9.154;2024-02-21T10:53:29;5.57;;;3.40;;
8458;SDS011;4266;48.816;9.154;2024-02-21T10:55:56;5.85;;;3.42;;
8458;SDS011;4266;48.816;9.154;2024-02-21T10:58:23;5.20;;;3.05;;
8458;SDS011;4266;48.816;9.154;2024-02-21T11:00:48;4.60;;;3.03;;
8458;SDS011;4266;48.816;9.154;2024-02-21T11:03:14;4.60;;;3.42;;
8458;SDS011;4266;48.816;9.154;2024-02-21T11:05:40;5.62;;;3.10;;
8458;SDS011;4266;48.816;9.154;2024-02-21T11:08:06;10.50;;;3.47;;
8458;SDS011;4266;48.816;9.154;2024-02-21T11:10:32;5.10;;;2.78;;
8458;SDS011;4266;48.816;9.154;2024-02-21T11:15:30;3.05;;;2.55;;
8458;SDS011;4266;48.816;9.154;2024-02-21T11:17:56;4.60;;;2.97;;
8458;SDS011;4266;48.816;9.154;2024-02-21T11:20:31;3.28;;;2.65;;
8458;SDS011;4266;48.816;9.154;2024-02-21T11:22:49;5.03;;;2.70;;
8458;SDS011;4266;48.816;9.154;2024-02-21T11:25:21;6.03;;;3.30;;
8458;SDS011;4266;48.816;9.154;2024-02-21T11:27:45;4.72;;;2.80;;
8458;SDS011;4266;48.816;9.154;2024-02-21T11:30:11;4.47;;;2.62;;
8458;SDS011;4266;48.816;9.154;2024-02-21T11:32:37;6.47;;;3.33;;
8458;SDS011;4266;48.816;9.154;2024-02-21T11:35:04;7.03;;;3.40;;
8458;SDS011;4266;48.816;9.154;2024-02-21T11:37:31;4.60;;;2.60;;
8458;SDS011;4266;48.816;9.154;2024-02-21T11:39:57;4.15;;;2.95;;
8458;SDS011;4266;48.816;9.154;2024-02-21T11:42:24;3.12;;;2.58;;
8458;SDS011;4266;48.816;9.154;2024-02-21T11:44:49;4.70;;;2.80;;
8458;SDS011;4266;48.816;9.154;2024-02-21T11:47:15;3.65;;;2.80;;
8458;SDS011;4266;48.816;9.154;2024-02-21T11:49:46;5.00;;;2.67;;
8458;SDS011;4266;48.816;9.154;2024-02-21T11:52:12;5.50;;;2.97;;
8458;SDS011;4266;48.816;9.154;2024-02-21T11:54:38;6.93;;;2.95;;
8458;SDS011;4266;48.816;9.154;2024-02-21T11:57:04;6.35;;;3.40;;
8458;SDS011;4266;48.816;9.154;2024-02-21T11:59:30;4.78;;;2.80;;
8458;SDS011;4266;48.816;9.154;2024-02-21T12:01:55;5.60;;;3.30;;
8458;SDS011;4266;48.816;9.154;2024-02-21T12:04:22;3.87;;;3.17;;
8458;SDS011;4266;48.816;9.154;2024-02-21T12:06:48;7.82;;;2.80;;
8458;SDS011;4266;48.816;9.154;2024-02-21T12:09:14;6.35;;;3.00;;
8458;SDS011;4266;48.816;9.154;2024-02-21T12:11:39;4.87;;;2.87;;
8458;SDS011;4266;48.816;9.154;2024-02-21T12:14:05;4.80;;;2.92;;
8458;SDS011;4266;48.816;9.154;2024-02-21T12:16:31;7.28;;;3.00;;
8458;SDS011;4266;48.816;9.154;2024-02-21T12:18:57;5.20;;;2.95;;
8458;SDS011;4266;48.816;9.154;2024-02-21T12:21:23;5.72;;;2.90;;
8458;SDS011;4266;48.816;9.154;2024-02-21T12:23:49;3.00;;;2.50;;
8458;SDS011;4266;48.816;9.154;2024-02-21T12:26:15;3.83;;;2.78;;
8458;SDS011;4266;48.816;9.154;2024-02-21T12:28:41;4.37;;;2.85;;
8458;SDS011;4266;48.816;9.154;2024-02-21T12:31:06;5.12;;;2.95;;
8458;SDS011;4266;48.816;9.154;2024-02-21T12:33:33;5.78;;;3.00;;
8458;SDS011;4266;48.816;9.154;2024-02-21T12:35:58;4.15;;;3.20;;
8458;SDS011;4266;48.816;9.154;2024-02-21T12:38:25;4.35;;;2.50;;
8458;SDS011;4266;48.816;9.154;2024-02-21T12:40:51;3.50;;;2.72;;
8458;SDS011;4266;48.816;9.154;2024-02-21T12:43:17;3.67;;;2.70;;
8458;SDS011;4266;48.816;9.154;2024-02-21T12:45:43;4.82;;;2.92;;
8458;SDS011;4266;48.816;9.154;2024-02-21T12:48:08;4.28;;;2.75;;
8458;SDS011;4266;48.816;9.154;2024-02-21T12:50:35;3.40;;;2.83;;
8458;SDS011;4266;48.816;9.154;2024-02-21T12:53:01;5.30;;;3.20;;
8458;SDS011;4266;48.816;9.154;2024-02-21T12:55:26;3.08;;;2.40;;
8458;SDS011;4266;48.816;9.154;2024-02-21T12:57:52;5.87;;;3.22;;
8458;SDS011;4266;48.816;9.154;2024-02-21T13:00:18;5.18;;;2.60;;
8458;SDS011;4266;48.816;9.154;2024-02-21T13:02:44;3.45;;;2.33;;
8458;SDS011;4266;48.816;9.154;2024-02-21T13:05:10;4.97;;;2.50;;
8458;SDS011;4266;48.816;9.154;2024-02-21T13:07:36;3.03;;;2.62;;
8458;SDS011;4266;48.816;9.154;2024-02-21T13:10:01;4.55;;;3.10;;
8458;SDS011;4266;48.816;9.154;2024-02-21T13:12:27;3.83;;;2.37;;
8458;SDS011;4266;48.816;9.154;2024-02-21T13:14:53;2.85;;;2.53;;
8458;SDS011;4266;48.816;9.154;2024-02-21T13:17:19;5.45;;;2.60;;
8458;SDS011;4266;48.816;9.154;2024-02-21T13:19:45;2.97;;;2.70;;
8458;SDS011;4266;48.816;9.154;2024-02-21T13:22:11;3.55;;;2.70;;
8458;SDS011;4266;48.816;9.154;2024-02-21T13:24:38;4.03;;;2.90;;
8458;SDS011;4266;48.816;9.154;2024-02-21T13:27:04;4.62;;;2.83;;
8458;SDS011;4266;48.816;9.154;2024-02-21T13:29:30;3.05;;;2.75;;
8458;SDS011;4266;48.816;9.154;2024-02-21T13:31:56;4.40;;;2.72;;
8458;SDS011;4266;48.816;9.154;2024-02-21T13:34:21;8.02;;;3.20;;
8458;SDS011;4266;48.816;9.154;2024-02-21T13:36:48;4.00;;;2.55;;
8458;SDS011;4266;48.816;9.154;2024-02-21T13:39:14;2.97;;;2.62;;
8458;SDS011;4266;48.816;9.154;2024-02-21T13:41:39;3.85;;;3.08;;
8458;SDS011;4266;48.816;9.154;2024-02-21T13:44:06;2.97;;;2.67;;
8458;SDS011;4266;48.816;9.154;2024-02-21T13:46:32;5.83;;;2.50;;
8458;SDS011;4266;48.816;9.154;2024-02-21T13:51:33;3.07;;;2.30;;
8458;SDS011;4266;48.816;9.154;2024-02-21T13:53:59;3.93;;;3.00;;
8458;SDS011;4266;48.816;9.154;2024-02-21T13:56:25;2.57;;;2.37;;
8458;SDS011;4266;48.816;9.154;2024-02-21T13:58:50;2.93;;;2.40;;
8458;SDS011;4266;48.816;9.154;2024-02-21T14:01:16;3.13;;;2.60;;
8458;SDS011;4266;48.816;9.154;2024-02-21T14:03:42;3.57;;;2.47;;
8458;SDS011;4266;48.816;9.154;2024-02-21T14:06:08;6.00;;;2.57;;
8458;SDS011;4266;48.816;9.154;2024-02-21T14:08:34;5.27;;;2.63;;
8458;SDS011;4266;48.816;9.154;2024-02-21T14:11:00;5.00;;;2.83;;
8458;SDS011;4266;48.816;9.154;2024-02-21T14:13:26;12.10;;;2.50;;
8458;SDS011;4266;48.816;9.154;2024-02-21T14:15:52;3.40;;;2.73;;
8458;SDS011;4266;48.816;9.154;2024-02-21T14:18:17;10.23;;;2.70;;
8458;SDS011;4266;48.816;9.154;2024-02-21T14:20:43;2.60;;;2.40;;
8458;SDS011;4266;48.816;9.154;2024-02-21T14:23:09;3.13;;;2.40;;
8458;SDS011;4266;48.816;9.154;2024-02-21T14:25:35;4.50;;;2.33;;
8458;SDS011;4266;48.816;9.154;2024-02-21T14:28:00;3.53;;;2.77;;
8458;SDS011;4266;48.816;9.154;2024-02-21T14:30:27;2.67;;;2.20;;
8458;SDS011;4266;48.816;9.154;2024-02-21T14:32:53;3.30;;;2.83;;
8458;SDS011;4266;48.816;9.154;2024-02-21T14:35:19;4.63;;;2.40;;
8458;SDS011;4266;48.816;9.154;2024-02-21T14:37:45;6.07;;;2.37;;
8458;SDS011;4266;48.816;9.154;2024-02-21T14:40:11;6.73;;;2.57;;
8458;SDS011;4266;48.816;9.154;2024-02-21T14:42:37;2.40;;;2.20;;
8458;SDS011;4266;48.816;9.154;2024-02-21T14:45:03;3.37;;;2.90;;
8458;SDS011;4266;48.816;9.154;2024-02-21T14:47:30;4.83;;;2.50;;
8458;SDS011;4266;48.816;9.154;2024-02-21T14:49:55;2.73;;;2.53;;
8458;SDS011;4266;48.816;9.154;2024-02-21T14:52:21;3.03;;;2.20;;
8458;SDS011;4266;48.816;9.154;2024-02-21T14:54:47;3.37;;;2.50;;
8458;SDS011;4266;48.816;9.154;2024-02-21T14:57:13;2.80;;;2.60;;
8458;SDS011;4266;48.816;9.154;2024-02-21T14:59:40;3.47;;;2.50;;
8458;SDS011;4266;48.816;9.154;2024-02-21T15:02:06;3.20;;;2.90;;
8458;SDS011;4266;48.816;9.154;2024-02-21T15:04:31;4.13;;;2.43;;
8458;SDS011;4266;48.816;9.154;2024-02-21T15:06:57;2.80;;;2.60;;
8458;SDS011;4266;48.816;9.154;2024-02-21T15:09:23;6.00;;;2.70;;